Time;durP1;ratioP1;P1;durP2;ratioP2;P2;SDS_P1;SDS_P2;PMS_P1;PMS_P2;Temp;Humidity;BMP_temperature;BMP_pressure;BME280_temperature;BME280_humidity;BME280_pressure;Samples;Min_cycle;Max_cycle;Signal;HPM_P1;HPM_P2
2021/09/06 00:01:45;;;;;;;6.80;5.93;;;13.80;99.90;;;;;;5013298;28;20480;-68
2021/09/06 00:04:13;;;;;;;6.07;5.47;;;13.80;99.90;;;;;;5013881;28;20469;-68
2021/09/06 00:06:42;;;;;;;8.03;6.50;;;13.80;99.90;;;;;;5013103;28;20481;-67
2021/09/06 00:09:09;;;;;;;7.67;6.10;;;13.80;99.90;;;;;;5013745;28;20465;-67
2021/09/06 00:11:36;;;;;;;6.73;6.03;;;13.80;99.90;;;;;;5013308;28;20460;-67
2021/09/06 00:14:04;;;;;;;7.73;5.30;;;13.70;99.90;;;;;;5013415;28;20870;-68
2021/09/06 00:16:30;;;;;;;6.33;5.73;;;13.70;99.90;;;;;;5013066;28;20489;-68
2021/09/06 00:18:57;;;;;;;7.10;5.90;;;13.70;99.90;;;;;;5012406;28;20483;-68
2021/09/06 00:21:25;;;;;;;8.07;5.87;;;13.70;99.90;;;;;;5013547;28;20457;-68
2021/09/06 00:23:52;;;;;;;7.27;5.90;;;13.70;99.90;;;;;;5013190;28;20465;-68
2021/09/06 00:26:19;;;;;;;7.80;6.03;;;13.70;99.90;;;;;;5013701;28;20868;-68
2021/09/06 00:28:45;;;;;;;7.27;6.00;;;13.60;99.90;;;;;;5012781;28;20461;-67
2021/09/06 00:31:14;;;;;;;6.90;6.00;;;13.60;99.90;;;;;;5013092;28;20833;-68
2021/09/06 00:33:41;;;;;;;7.37;6.00;;;13.60;99.90;;;;;;5013059;28;20468;-67
2021/09/06 00:36:08;;;;;;;6.53;5.80;;;13.60;99.90;;;;;;5013002;28;20508;-67
2021/09/06 00:38:36;;;;;;;7.13;6.10;;;13.60;99.90;;;;;;5012713;28;20485;-67
2021/09/06 00:41:03;;;;;;;6.77;6.13;;;13.60;99.90;;;;;;5012651;28;20469;-68
2021/09/06 00:43:30;;;;;;;7.73;5.70;;;13.50;99.90;;;;;;5013120;28;20470;-68
2021/09/06 00:45:57;;;;;;;7.20;6.50;;;13.50;99.90;;;;;;5012751;28;20829;-67
2021/09/06 00:48:25;;;;;;;6.27;5.50;;;13.50;99.90;;;;;;5012615;28;20513;-68
2021/09/06 00:50:54;;;;;;;8.57;6.40;;;13.50;99.90;;;;;;5013101;28;20855;-67
2021/09/06 00:53:21;;;;;;;6.27;5.60;;;13.40;99.90;;;;;;5012742;28;20461;-68
2021/09/06 00:55:50;;;;;;;6.13;5.53;;;13.40;99.90;;;;;;5012584;28;20492;-67
2021/09/06 00:58:17;;;;;;;7.50;6.00;;;13.40;99.90;;;;;;5012495;28;20572;-67
2021/09/06 01:00:44;;;;;;;7.63;6.00;;;13.40;99.90;;;;;;5012511;28;20869;-67
2021/09/06 01:03:10;;;;;;;6.80;6.10;;;13.30;99.90;;;;;;5012369;28;20469;-68
2021/09/06 01:05:37;;;;;;;7.00;5.80;;;13.30;99.90;;;;;;5012561;28;20461;-68
2021/09/06 01:08:04;;;;;;;6.47;5.80;;;13.30;99.90;;;;;;5012021;28;20485;-68
2021/09/06 01:10:31;;;;;;;7.30;6.47;;;13.30;99.90;;;;;;5012254;28;20484;-68
2021/09/06 01:12:59;;;;;;;6.90;5.50;;;13.30;99.90;;;;;;5011871;28;20956;-68
2021/09/06 01:15:26;;;;;;;6.30;5.70;;;13.30;99.90;;;;;;5012286;28;20512;-68
2021/09/06 01:17:53;;;;;;;7.33;6.00;;;13.20;99.90;;;;;;5011291;28;20485;-68
2021/09/06 01:20:20;;;;;;;9.47;5.63;;;13.20;99.90;;;;;;5012239;28;20454;-68
2021/09/06 01:22:46;;;;;;;7.10;6.20;;;13.20;99.90;;;;;;5011524;28;20469;-68
2021/09/06 01:25:15;;;;;;;6.33;5.60;;;13.10;99.90;;;;;;5012459;28;20470;-67
2021/09/06 01:27:44;;;;;;;7.93;5.87;;;13.10;99.90;;;;;;5011558;28;20481;-68
2021/09/06 01:30:11;;;;;;;7.47;5.80;;;13.10;99.90;;;;;;5011302;28;20457;-68
2021/09/06 01:32:38;;;;;;;6.80;5.57;;;13.10;99.90;;;;;;5011984;28;20531;-67
2021/09/06 01:35:06;;;;;;;8.60;6.57;;;13.10;99.90;;;;;;5011769;28;20548;-67
2021/09/06 01:37:33;;;;;;;7.07;5.63;;;13.00;99.90;;;;;;5011473;28;20496;-68
2021/09/06 01:40:00;;;;;;;6.23;5.43;;;13.00;99.90;;;;;;5011678;28;20549;-68
2021/09/06 01:42:26;;;;;;;6.33;5.73;;;13.00;99.90;;;;;;5011864;28;20964;-68
2021/09/06 01:44:54;;;;;;;6.47;5.87;;;13.00;99.90;;;;;;5011753;28;20863;-67
2021/09/06 01:47:21;;;;;;;9.73;6.47;;;13.00;99.90;;;;;;5011336;28;20485;-68
2021/09/06 01:49:48;;;;;;;6.07;5.27;;;13.00;99.90;;;;;;5011693;28;20956;-68
2021/09/06 01:52:14;;;;;;;6.20;5.60;;;12.90;99.90;;;;;;5011474;28;20472;-68
2021/09/06 01:54:41;;;;;;;6.87;5.87;;;12.90;99.90;;;;;;5011637;28;20473;-68
2021/09/06 01:57:08;;;;;;;13.00;6.50;;;12.90;99.90;;;;;;5011081;28;20492;-68
2021/09/06 01:59:34;;;;;;;5.50;5.00;;;12.90;99.90;;;;;;5011531;28;20969;-68
2021/09/06 02:02:03;;;;;;;6.83;5.70;;;12.80;99.90;;;;;;5011262;28;20492;-67
2021/09/06 02:04:29;;;;;;;10.43;6.03;;;12.80;99.90;;;;;;5011452;28;20465;-68
2021/09/06 02:06:56;;;;;;;8.00;5.97;;;12.80;99.90;;;;;;5010819;28;20481;-68
2021/09/06 02:09:23;;;;;;;9.23;6.63;;;12.70;99.90;;;;;;5011435;28;20860;-68
2021/09/06 02:11:49;;;;;;;8.47;6.10;;;12.70;99.90;;;;;;5011220;28;20464;-67
2021/09/06 02:14:16;;;;;;;7.40;5.60;;;12.70;99.90;;;;;;5011459;28;20461;-68
2021/09/06 02:16:43;;;;;;;6.60;6.00;;;12.70;99.90;;;;;;5010655;28;20873;-67
2021/09/06 02:19:11;;;;;;;7.47;5.80;;;12.70;99.90;;;;;;5011340;28;20533;-68
2021/09/06 02:21:37;;;;;;;8.30;5.87;;;12.60;99.90;;;;;;5010953;28;20484;-67
2021/09/06 02:24:05;;;;;;;8.10;6.13;;;12.60;99.90;;;;;;5011181;28;20461;-68
2021/09/06 02:26:33;;;;;;;7.13;6.43;;;12.60;99.90;;;;;;5011172;28;20457;-68
2021/09/06 02:29:00;;;;;;;6.50;5.53;;;12.60;99.90;;;;;;5010595;28;20559;-67
2021/09/06 02:31:27;;;;;;;6.90;6.20;;;12.60;99.90;;;;;;5011052;28;20457;-67
2021/09/06 02:33:53;;;;;;;6.43;5.83;;;12.60;99.90;;;;;;5010811;28;20469;-68
2021/09/06 02:36:21;;;;;;;6.93;5.73;;;12.50;99.90;;;;;;5010891;28;20496;-68
2021/09/06 02:38:48;;;;;;;7.60;6.20;;;12.50;99.90;;;;;;5010388;28;20457;-68
2021/09/06 02:41:15;;;;;;;7.70;6.93;;;12.50;99.90;;;;;;5010600;28;20469;-68
2021/09/06 02:43:42;;;;;;;8.87;5.80;;;12.50;99.90;;;;;;5010889;28;20471;-68
2021/09/06 02:46:08;;;;;;;7.20;5.70;;;12.50;99.90;;;;;;5010743;28;20466;-68
2021/09/06 02:48:35;;;;;;;6.60;5.97;;;12.40;99.90;;;;;;5010622;28;20484;-68
2021/09/06 02:51:03;;;;;;;7.03;5.60;;;12.40;99.90;;;;;;5010503;28;20536;-68
2021/09/06 02:53:31;;;;;;;7.70;6.37;;;12.40;99.90;;;;;;5011050;28;20457;-70
2021/09/06 02:55:58;;;;;;;6.87;6.17;;;12.40;99.90;;;;;;5010794;28;20493;-68
2021/09/06 02:58:24;;;;;;;5.80;5.30;;;12.30;99.90;;;;;;5010482;28;20481;-67
2021/09/06 03:00:51;;;;;;;6.80;6.10;;;12.30;99.90;;;;;;5010623;28;20468;-68
2021/09/06 03:03:18;;;;;;;6.60;5.83;;;12.30;99.90;;;;;;5010620;28;20465;-68
2021/09/06 03:05:45;;;;;;;9.67;6.70;;;12.30;99.90;;;;;;5104827;22;20808;-70
2021/09/06 03:08:12;;;;;;;6.63;5.90;;;12.30;99.90;;;;;;5032926;28;20522;-69
2021/09/06 03:10:40;;;;;;;6.50;5.87;;;12.30;99.90;;;;;;5030251;28;20835;-69
2021/09/06 03:13:07;;;;;;;6.43;5.50;;;12.30;99.90;;;;;;5029744;28;20468;-69
2021/09/06 03:15:33;;;;;;;7.40;6.10;;;12.30;99.90;;;;;;5030001;28;20460;-69
2021/09/06 03:18:00;;;;;;;8.43;5.85;;;12.20;99.90;;;;;;5029554;28;20488;-69
2021/09/06 03:20:27;;;;;;;7.53;6.10;;;12.20;99.90;;;;;;5029956;28;20208;-69
2021/09/06 03:22:54;;;;;;;7.50;5.87;;;12.20;99.90;;;;;;5029760;28;20464;-69
2021/09/06 03:25:21;;;;;;;6.93;6.23;;;12.20;99.90;;;;;;5029791;28;20785;-69
2021/09/06 03:27:49;;;;;;;8.20;6.53;;;12.20;99.90;;;;;;5029264;28;20543;-69
2021/09/06 03:30:15;;;;;;;7.60;6.10;;;12.20;99.90;;;;;;5030169;28;20456;-70
2021/09/06 03:32:42;;;;;;;7.50;5.17;;;12.10;99.90;;;;;;5029629;28;20483;-69
2021/09/06 03:35:11;;;;;;;7.83;5.90;;;12.20;99.90;;;;;;5029691;28;20460;-69
2021/09/06 03:37:38;;;;;;;6.97;5.73;;;12.10;99.90;;;;;;5028452;28;21008;-69
2021/09/06 03:40:06;;;;;;;7.40;6.70;;;12.10;99.90;;;;;;5036779;28;20899;-70
2021/09/06 03:42:33;;;;;;;6.73;5.50;;;12.10;99.90;;;;;;5037424;28;20456;-69
2021/09/06 03:45:01;;;;;;;8.83;6.13;;;12.10;99.90;;;;;;5039055;28;20467;-69
2021/09/06 03:47:27;;;;;;;7.13;6.17;;;12.10;99.90;;;;;;5037356;28;20479;-70
2021/09/06 03:49:56;;;;;;;6.83;6.13;;;12.10;99.90;;;;;;5037783;28;20462;-70
2021/09/06 03:52:23;;;;;;;6.70;5.97;;;12.10;99.90;;;;;;5039529;28;20459;-69
2021/09/06 03:54:49;;;;;;;6.90;6.03;;;12.00;99.90;;;;;;5041303;28;20460;-70
2021/09/06 03:57:16;;;;;;;7.03;5.90;;;12.00;99.90;;;;;;5041744;28;20853;-69
2021/09/06 03:59:43;;;;;;;8.30;6.57;;;12.00;99.90;;;;;;5042916;28;20455;-68
2021/09/06 04:02:11;;;;;;;8.63;5.57;;;12.00;99.90;;;;;;5036259;28;20460;-69
2021/09/06 04:04:38;;;;;;;6.80;6.17;;;11.90;99.90;;;;;;5047447;28;20456;-69
2021/09/06 04:07:04;;;;;;;8.53;6.20;;;12.00;99.90;;;;;;5032143;28;20472;-68
2021/09/06 04:09:31;;;;;;;7.40;6.50;;;11.90;99.90;;;;;;5039136;28;20460;-69
2021/09/06 04:11:58;;;;;;;6.80;6.20;;;11.90;99.90;;;;;;5040639;28;20462;-69
2021/09/06 04:14:27;;;;;;;9.40;6.17;;;11.90;99.90;;;;;;5048406;28;20887;-69
2021/09/06 04:16:54;;;;;;;8.20;6.47;;;11.90;99.90;;;;;;5041248;28;20483;-69
2021/09/06 04:19:22;;;;;;;6.40;5.80;;;11.90;99.90;;;;;;5040906;28;20462;-68
2021/09/06 04:21:49;;;;;;;9.50;6.97;;;11.90;99.90;;;;;;5040729;28;20467;-69
2021/09/06 04:24:15;;;;;;;6.90;6.10;;;11.90;99.90;;;;;;5041493;28;20462;-68
2021/09/06 04:26:42;;;;;;;6.60;5.77;;;11.90;99.90;;;;;;5042401;28;20217;-68
2021/09/06 04:29:09;;;;;;;7.10;6.40;;;11.80;99.90;;;;;;5040341;28;20495;-69
2021/09/06 04:31:36;;;;;;;7.88;6.18;;;11.80;99.90;;;;;;5041420;28;20526;-68
2021/09/06 04:34:02;;;;;;;6.83;5.80;;;11.80;99.90;;;;;;5042592;28;20205;-69
2021/09/06 04:36:30;;;;;;;8.20;5.83;;;11.80;99.90;;;;;;5039763;28;20494;-69
2021/09/06 04:38:57;;;;;;;9.40;6.30;;;11.70;99.90;;;;;;5031780;28;20452;-69
2021/09/06 04:41:24;;;;;;;12.37;6.73;;;11.70;99.90;;;;;;5030335;28;20820;-69
2021/09/06 04:43:50;;;;;;;8.20;6.23;;;11.70;99.90;;;;;;5030508;28;20468;-69
2021/09/06 04:46:17;;;;;;;8.33;6.90;;;11.70;99.90;;;;;;5032401;28;20468;-69
2021/09/06 04:48:44;;;;;;;8.60;6.57;;;11.70;99.90;;;;;;5032111;28;20480;-69
2021/09/06 04:51:11;;;;;;;8.43;6.20;;;11.60;99.90;;;;;;5032171;28;20463;-69
2021/09/06 04:53:39;;;;;;;7.10;5.80;;;11.60;99.90;;;;;;5032505;28;20507;-69
2021/09/06 04:56:06;;;;;;;6.40;5.57;;;11.60;99.90;;;;;;5032384;28;20499;-68
2021/09/06 04:58:33;;;;;;;8.48;6.10;;;11.60;99.90;;;;;;5032139;28;20952;-69
2021/09/06 05:01:00;;;;;;;11.27;6.13;;;11.50;99.90;;;;;;5032224;28;20212;-68
2021/09/06 05:03:27;;;;;;;13.13;7.00;;;11.50;99.90;;;;;;5032177;28;20464;-69
2021/09/06 05:05:55;;;;;;;6.73;5.97;;;11.50;99.90;;;;;;5032141;28;20571;-69
2021/09/06 05:08:22;;;;;;;7.30;6.43;;;11.50;99.90;;;;;;5032090;28;20584;-69
2021/09/06 05:10:50;;;;;;;7.10;6.40;;;11.50;99.90;;;;;;5032236;28;20673;-69
2021/09/06 05:13:16;;;;;;;6.30;5.70;;;11.50;99.90;;;;;;5031945;28;20457;-68
2021/09/06 05:15:43;;;;;;;7.03;6.33;;;11.60;99.90;;;;;;5032295;28;20818;-69
2021/09/06 05:18:11;;;;;;;7.82;6.30;;;11.60;99.90;;;;;;5031347;28;20492;-69
2021/09/06 05:20:38;;;;;;;8.77;6.70;;;11.50;99.90;;;;;;5032359;28;20241;-69
2021/09/06 05:23:07;;;;;;;8.50;6.03;;;11.60;99.90;;;;;;5031085;28;20212;-69
2021/09/06 05:25:34;;;;;;;7.70;6.60;;;11.50;99.90;;;;;;5031886;28;20271;-69
2021/09/06 05:28:03;;;;;;;7.13;6.30;;;11.60;99.90;;;;;;5031480;28;20872;-69
2021/09/06 05:30:30;;;;;;;6.60;5.90;;;11.60;99.90;;;;;;5032023;28;20932;-69
2021/09/06 05:32:57;;;;;;;7.40;6.70;;;11.60;99.90;;;;;;5031483;28;20213;-68
2021/09/06 05:35:24;;;;;;;6.78;6.10;;;11.60;99.90;;;;;;5031892;28;20832;-69
2021/09/06 05:37:51;;;;;;;7.93;6.45;;;11.60;99.90;;;;;;5031194;28;20253;-68
2021/09/06 05:40:17;;;;;;;7.47;5.68;;;11.70;99.90;;;;;;5031600;28;20700;-69
2021/09/06 05:42:44;;;;;;;7.22;5.70;;;11.70;99.90;;;;;;5031339;28;20202;-68
2021/09/06 05:45:12;;;;;;;7.37;6.67;;;11.80;99.90;;;;;;5031714;28;20582;-69
2021/09/06 05:47:39;;;;;;;7.30;6.50;;;11.80;99.90;;;;;;5031020;28;20477;-69
2021/09/06 05:50:07;;;;;;;8.13;5.80;;;11.80;99.90;;;;;;5031499;28;20208;-69
2021/09/06 05:52:33;;;;;;;12.07;6.63;;;11.80;99.90;;;;;;5031188;28;20456;-69
2021/09/06 05:55:00;;;;;;;6.97;6.27;;;11.90;99.90;;;;;;5031333;28;20947;-69
2021/09/06 05:57:27;;;;;;;8.73;6.70;;;11.90;99.90;;;;;;5030910;28;20496;-69
2021/09/06 05:59:53;;;;;;;7.63;6.75;;;12.00;99.90;;;;;;5031046;28;20464;-69
2021/09/06 06:02:22;;;;;;;9.98;6.80;;;12.20;99.90;;;;;;5030991;28;20224;-69
2021/09/06 06:04:48;;;;;;;9.10;7.37;;;12.30;99.90;;;;;;5030998;28;20212;-69
2021/09/06 06:07:15;;;;;;;8.23;7.43;;;12.50;99.90;;;;;;5030730;28;20980;-69
2021/09/06 06:09:41;;;;;;;8.45;7.47;;;12.60;99.90;;;;;;5031046;28;20425;-69
2021/09/06 06:12:09;;;;;;;12.00;7.72;;;12.70;99.90;;;;;;5031055;28;20202;-69
2021/09/06 06:14:35;;;;;;;8.13;7.27;;;12.80;99.90;;;;;;5030604;28;20197;-69
2021/09/06 06:17:02;;;;;;;8.73;7.53;;;12.90;99.90;;;;;;5030205;28;20488;-69
2021/09/06 06:19:31;;;;;;;9.45;7.07;;;13.00;99.90;;;;;;5030870;28;20206;-69
2021/09/06 06:21:57;;;;;;;8.33;7.43;;;13.00;99.90;;;;;;5030641;28;20202;-69
2021/09/06 06:24:24;;;;;;;8.90;7.20;;;13.10;99.90;;;;;;5030606;28;20467;-69
2021/09/06 06:26:51;;;;;;;7.83;7.03;;;13.20;99.90;;;;;;5030559;28;20480;-69
2021/09/06 06:29:17;;;;;;;8.40;7.10;;;13.30;99.90;;;;;;5030591;28;20464;-69
2021/09/06 06:31:44;;;;;;;9.00;6.33;;;13.40;99.90;;;;;;5030520;28;20460;-69
2021/09/06 06:34:11;;;;;;;8.47;7.60;;;13.50;99.90;;;;;;5030583;28;20460;-69
2021/09/06 06:36:39;;;;;;;7.90;7.10;;;13.60;99.90;;;;;;5030721;28;20472;-69
2021/09/06 06:39:06;;;;;;;9.57;8.10;;;13.70;99.90;;;;;;5030459;28;20484;-69
2021/09/06 06:41:32;;;;;;;12.87;8.30;;;13.80;99.90;;;;;;5030378;28;20464;-69
2021/09/06 06:44:00;;;;;;;8.50;7.67;;;13.90;99.90;;;;;;5030307;28;20468;-69
2021/09/06 06:46:27;;;;;;;10.93;7.93;;;14.00;99.90;;;;;;5030491;28;20464;-69
2021/09/06 06:48:53;;;;;;;9.10;8.10;;;14.00;99.90;;;;;;5030048;28;20460;-69
2021/09/06 06:51:20;;;;;;;7.33;6.63;;;14.10;99.90;;;;;;5030381;28;20460;-68
2021/09/06 06:53:48;;;;;;;9.63;8.13;;;14.30;99.90;;;;;;5030253;28;20453;-69
2021/09/06 06:56:15;;;;;;;8.33;7.50;;;14.30;99.90;;;;;;5030433;28;20460;-69
2021/09/06 06:58:42;;;;;;;12.63;8.43;;;14.50;99.90;;;;;;5029653;28;20488;-69
2021/09/06 07:01:08;;;;;;;9.93;8.43;;;14.60;99.90;;;;;;5030383;28;20487;-68
2021/09/06 07:03:35;;;;;;;9.33;8.33;;;14.80;99.90;;;;;;5030063;28;20471;-69
2021/09/06 07:06:02;;;;;;;9.43;8.53;;;14.90;99.90;;;;;;5030269;28;20472;-69
2021/09/06 07:08:28;;;;;;;11.20;8.90;;;15.10;99.90;;;;;;5029983;28;20479;-69
2021/09/06 07:10:56;;;;;;;9.47;8.30;;;15.20;99.90;;;;;;5030198;28;20843;-69
2021/09/06 07:13:23;;;;;;;9.93;8.90;;;15.40;99.90;;;;;;5030085;28;20467;-69
2021/09/06 07:15:50;;;;;;;9.70;8.70;;;15.50;99.90;;;;;;5029961;28;20479;-69
2021/09/06 07:18:16;;;;;;;10.80;8.60;;;15.70;99.90;;;;;;5029700;28;20867;-69
2021/09/06 07:20:43;;;;;;;11.30;9.60;;;15.80;99.90;;;;;;5030085;28;20464;-69
2021/09/06 07:23:10;;;;;;;10.37;8.50;;;15.90;99.90;;;;;;5029972;28;20978;-69
2021/09/06 07:25:37;;;;;;;12.47;10.13;;;16.10;99.90;;;;;;5029997;28;20467;-69
2021/09/06 07:28:05;;;;;;;10.33;8.30;;;16.20;99.90;;;;;;5032493;28;20483;-68
2021/09/06 07:30:33;;;;;;;10.60;9.13;;;16.40;99.90;;;;;;5033134;28;20467;-69
2021/09/06 07:33:02;;;;;;;11.27;9.00;;;16.50;99.90;;;;;;5032997;28;20840;-68
2021/09/06 07:35:29;;;;;;;10.60;8.93;;;16.70;99.90;;;;;;5047294;28;20854;-69
2021/09/06 07:37:56;;;;;;;9.93;8.93;;;16.80;99.90;;;;;;5033165;28;20480;-70
2021/09/06 07:40:22;;;;;;;13.00;9.30;;;16.90;99.90;;;;;;5033091;28;20460;-69
2021/09/06 07:42:49;;;;;;;10.33;8.83;;;17.00;99.90;;;;;;5032819;28;20467;-69
2021/09/06 07:45:18;;;;;;;10.77;9.67;;;17.20;99.90;;;;;;5032971;28;20448;-69
2021/09/06 07:47:44;;;;;;;9.20;7.93;;;17.40;99.90;;;;;;5044516;28;20867;-69
2021/09/06 07:50:12;;;;;;;9.60;8.50;;;17.50;99.90;;;;;;5045571;28;20468;-69
2021/09/06 07:52:40;;;;;;;11.53;7.70;;;17.60;99.90;;;;;;5032556;28;20468;-69
2021/09/06 07:55:09;;;;;;;12.20;6.97;;;17.70;99.90;;;;;;5033008;28;20734;-69
2021/09/06 07:57:35;;;;;;;8.80;7.57;;;17.90;99.90;;;;;;5032383;28;20483;-69
2021/09/06 08:00:03;;;;;;;8.80;7.70;;;18.00;99.90;;;;;;5032817;28;20463;-69
2021/09/06 08:02:38;;;;;;;9.10;6.53;;;18.20;99.90;;;;;;5032535;28;20842;-69
2021/09/06 08:05:05;;;;;;;9.03;7.77;;;18.30;99.90;;;;;;5033017;28;20475;-69
2021/09/06 08:07:32;;;;;;;9.43;7.53;;;18.50;99.90;;;;;;5031970;28;20476;-69
2021/09/06 08:09:59;;;;;;;7.47;6.57;;;18.60;99.90;;;;;;5032622;28;20460;-70
2021/09/06 08:12:25;;;;;;;7.43;6.63;;;18.70;99.90;;;;;;5032676;28;20471;-69
2021/09/06 08:14:52;;;;;;;8.10;7.20;;;18.90;99.90;;;;;;5032339;28;21000;-69
2021/09/06 08:17:19;;;;;;;7.60;6.90;;;19.00;99.90;;;;;;5045451;28;20484;-69
2021/09/06 08:19:47;;;;;;;7.13;6.37;;;19.10;99.90;;;;;;5052056;28;20510;-69
2021/09/06 08:22:14;;;;;;;7.90;7.10;;;19.20;99.90;;;;;;5052238;28;20456;-69
2021/09/06 08:24:43;;;;;;;9.33;6.60;;;19.40;99.90;;;;;;5052664;28;20489;-69
2021/09/06 08:27:10;;;;;;;10.57;7.13;;;19.50;99.90;;;;;;5052478;28;20475;-69
2021/09/06 08:29:36;;;;;;;8.87;7.23;;;19.60;99.90;;;;;;5051961;28;20481;-69
2021/09/06 08:32:04;;;;;;;7.10;6.40;;;19.80;99.90;;;;;;5052840;28;20470;-69
2021/09/06 08:34:31;;;;;;;7.20;6.60;;;19.80;99.90;;;;;;5052493;28;20978;-69
2021/09/06 08:36:59;;;;;;;7.90;6.90;;;20.00;99.90;;;;;;5052215;28;20479;-69
2021/09/06 08:39:25;;;;;;;7.90;6.30;;;20.20;99.90;;;;;;5051427;28;20487;-69
2021/09/06 08:41:52;;;;;;;8.50;6.83;;;20.30;99.90;;;;;;5052510;28;20471;-69
2021/09/06 08:44:19;;;;;;;7.40;6.03;;;20.40;99.90;;;;;;5052604;28;20970;-69
2021/09/06 08:46:46;;;;;;;7.53;6.73;;;20.50;99.90;;;;;;5052282;28;20487;-68
2021/09/06 08:49:13;;;;;;;8.83;6.90;;;20.60;99.90;;;;;;5052367;28;20459;-69
2021/09/06 08:51:40;;;;;;;12.90;6.77;;;20.70;99.90;;;;;;5052149;28;20935;-69
2021/09/06 08:54:08;;;;;;;7.80;5.67;;;20.80;99.90;;;;;;5052834;28;20463;-69
2021/09/06 08:56:36;;;;;;;7.70;6.10;;;20.90;99.90;;;;;;5052319;28;20463;-69
2021/09/06 08:59:02;;;;;;;6.50;5.77;;;21.00;99.90;;;;;;5051905;28;20869;-69
2021/09/06 09:01:40;;;;;;;6.53;5.90;;;21.10;99.90;;;;;;5052231;28;20467;-69
2021/09/06 09:04:18;;;;;;;6.20;5.60;;;21.10;99.90;;;;;;5052176;28;20462;-68
2021/09/06 09:06:48;;;;;;;7.30;6.13;;;21.30;99.90;;;;;;5130682;22;20494;-74
2021/09/06 09:09:26;;;;;;;6.50;5.90;;;21.40;99.90;;;;;;5071847;28;20483;-74
2021/09/06 09:12:08;;;;;;;6.50;5.87;;;21.50;99.90;;;;;;5072039;28;20461;-74
2021/09/06 09:14:37;;;;;;;6.83;6.23;;;21.60;99.90;;;;;;5071948;28;20837;-74
2021/09/06 09:17:05;;;;;;;7.40;6.57;;;21.70;99.90;;;;;;5072057;28;20845;-74
2021/09/06 09:19:32;;;;;;;8.00;6.13;;;21.80;99.90;;;;;;5071195;28;20483;-74
2021/09/06 09:22:00;;;;;;;6.63;5.10;;;21.90;99.90;;;;;;5071873;28;20460;-74
2021/09/06 09:24:29;;;;;;;6.57;5.93;;;22.10;99.90;;;;;;5071559;28;20462;-74
2021/09/06 09:26:58;;;;;;;6.43;5.67;;;22.20;99.90;;;;;;5071636;28;20861;-74
2021/09/06 09:29:25;;;;;;;6.03;5.43;;;22.30;99.90;;;;;;5069122;28;20462;-74
2021/09/06 09:31:54;;;;;;;6.03;5.53;;;22.40;99.90;;;;;;5048384;28;20459;-74
2021/09/06 09:34:21;;;;;;;5.90;5.40;;;22.50;99.90;;;;;;5031610;28;20464;-74
2021/09/06 09:36:49;;;;;;;6.20;5.43;;;22.60;99.90;;;;;;5031415;28;20488;-74
2021/09/06 09:39:18;;;;;;;8.27;6.67;;;22.70;99.90;;;;;;5031283;28;20914;-74
2021/09/06 09:41:48;;;;;;;6.53;5.93;;;22.80;99.90;;;;;;5031077;28;20465;-74
2021/09/06 09:44:20;;;;;;;6.73;6.00;;;22.90;99.90;;;;;;5031631;28;20786;-74
2021/09/06 09:46:55;;;;;;;6.10;5.50;;;23.00;99.90;;;;;;5032382;28;20526;-74
2021/09/06 09:49:23;;;;;;;6.23;5.63;;;23.10;99.90;;;;;;5032461;28;20881;-74
2021/09/06 09:51:50;;;;;;;9.40;5.50;;;23.20;99.90;;;;;;5030719;28;20467;-74
2021/09/06 09:54:17;;;;;;;6.00;5.40;;;23.30;99.90;;;;;;5031799;28;20464;-74
2021/09/06 09:56:46;;;;;;;7.53;5.80;;;23.40;99.90;;;;;;5031362;28;20484;-74
2021/09/06 09:59:14;;;;;;;8.70;6.93;;;23.50;99.90;;;;;;5030974;28;20486;-74
2021/09/06 10:01:44;;;;;;;9.63;6.83;;;23.60;99.90;;;;;;5030477;28;20845;-74
2021/09/06 10:04:13;;;;;;;7.17;6.57;;;23.60;99.90;;;;;;5031242;28;20546;-74
2021/09/06 10:06:42;;;;;;;6.50;5.90;;;23.80;99.90;;;;;;5030815;28;20870;-74
2021/09/06 10:09:12;;;;;;;6.90;6.27;;;23.90;99.90;;;;;;5033235;28;20449;-74
2021/09/06 10:11:41;;;;;;;6.30;5.70;;;24.00;99.90;;;;;;5030775;28;20465;-74
2021/09/06 10:14:14;;;;;;;7.37;6.63;;;24.10;99.90;;;;;;5031044;28;20456;-74
2021/09/06 10:16:41;;;;;;;6.50;5.83;;;24.20;99.90;;;;;;5030547;28;20777;-75
2021/09/06 10:19:10;;;;;;;6.90;5.90;;;24.30;99.90;;;;;;5030600;28;20483;-74
2021/09/06 10:21:41;;;;;;;7.20;6.50;;;24.40;99.90;;;;;;5030636;28;20471;-74
2021/09/06 10:24:16;;;;;;;6.53;5.93;;;24.40;99.90;;;;;;5030667;28;20472;-74
2021/09/06 10:26:44;;;;;;;6.73;6.03;;;24.50;99.90;;;;;;5030383;28;20480;-74
2021/09/06 10:29:20;;;;;;;6.90;6.20;;;24.60;99.90;;;;;;5030483;28;21002;-74
2021/09/06 10:31:59;;;;;;;6.47;5.87;;;24.70;99.90;;;;;;5030789;28;20471;-75
2021/09/06 10:34:29;;;;;;;7.23;6.53;;;24.70;99.90;;;;;;5031476;28;20608;-75
2021/09/06 10:37:01;;;;;;;7.30;6.60;;;24.70;99.90;;;;;;5031160;28;20486;-75
2021/09/06 10:39:28;;;;;;;6.40;5.83;;;24.90;99.90;;;;;;5030139;28;20863;-74
2021/09/06 10:42:07;;;;;;;6.70;6.00;;;25.00;99.90;;;;;;5030649;28;20468;-74
2021/09/06 10:44:39;;;;;;;6.33;5.73;;;25.10;99.90;;;;;;5030260;28;20467;-74
2021/09/06 10:47:09;;;;;;;6.33;5.73;;;25.20;99.90;;;;;;5030516;28;20492;-74
2021/09/06 10:49:40;;;;;;;6.40;5.83;;;25.20;99.90;;;;;;5030080;28;20459;-74
2021/09/06 10:52:08;;;;;;;6.00;5.50;;;25.20;99.90;;;;;;5030300;28;20902;-74
2021/09/06 10:54:35;;;;;;;7.77;6.53;;;25.30;99.90;;;;;;5030210;28;20538;-74
2021/09/06 10:57:03;;;;;;;6.67;6.07;;;25.50;99.90;;;;;;5029978;28;21005;-74
2021/09/06 10:59:29;;;;;;;7.00;6.30;;;25.50;99.90;;;;;;5030016;28;20524;-74
2021/09/06 11:01:58;;;;;;;6.67;6.07;;;25.60;99.90;;;;;;5029806;28;20464;-74
2021/09/06 11:04:27;;;;;;;7.40;6.30;;;25.60;99.90;;;;;;5030155;28;20456;-74
2021/09/06 11:07:01;;;;;;;7.90;7.03;;;25.70;99.90;;;;;;5029980;28;20970;-74
2021/09/06 11:09:29;;;;;;;7.00;6.40;;;25.70;99.90;;;;;;5029847;28;20530;-75
2021/09/06 11:12:03;;;;;;;6.70;6.07;;;25.60;99.90;;;;;;5029836;28;20472;-74
2021/09/06 11:14:39;;;;;;;6.47;5.87;;;25.70;99.90;;;;;;5029931;28;20471;-74
2021/09/06 11:17:25;;;;;;;6.50;5.90;;;25.60;99.90;;;;;;5030154;28;20845;-74
2021/09/06 11:19:55;;;;;;;10.10;6.70;;;25.70;99.90;;;;;;5029005;28;20489;-74
2021/09/06 11:22:28;;;;;;;6.67;6.00;;;25.70;99.90;;;;;;5026456;28;20464;-74
2021/09/06 11:24:57;;;;;;;6.57;5.97;;;25.70;99.90;;;;;;5028824;28;20471;-74
2021/09/06 11:27:26;;;;;;;6.87;6.17;;;25.70;99.90;;;;;;5030075;28;20518;-74
2021/09/06 11:29:53;;;;;;;7.30;6.60;;;25.80;99.90;;;;;;5029434;28;20466;-75
2021/09/06 11:32:19;;;;;;;6.57;6.07;;;25.80;99.90;;;;;;5038536;28;20478;-74
2021/09/06 11:34:49;;;;;;;7.27;6.60;;;25.80;99.90;;;;;;5049543;28;20464;-75
2021/09/06 11:37:18;;;;;;;8.70;6.13;;;25.90;99.90;;;;;;5049746;28;20565;-75
2021/09/06 11:39:45;;;;;;;6.93;6.20;;;26.00;99.90;;;;;;5048947;28;20479;-75
2021/09/06 11:42:12;;;;;;;6.90;5.70;;;26.10;99.90;;;;;;5049636;28;20839;-75
2021/09/06 11:44:39;;;;;;;7.17;5.93;;;26.20;99.90;;;;;;5049388;28;20466;-74
2021/09/06 11:47:06;;;;;;;7.20;6.20;;;26.20;99.90;;;;;;5049736;28;20491;-75
2021/09/06 11:49:33;;;;;;;7.23;6.50;;;26.30;99.90;;;;;;5049179;28;20478;-75
2021/09/06 11:52:11;;;;;;;7.10;6.50;;;26.30;99.90;;;;;;5049444;28;20463;-75
2021/09/06 11:54:43;;;;;;;7.37;6.67;;;26.30;99.90;;;;;;5041125;28;20475;-74
2021/09/06 11:57:12;;;;;;;6.70;6.10;;;26.30;99.90;;;;;;5047911;28;20493;-74
2021/09/06 11:59:40;;;;;;;7.33;6.20;;;26.30;99.90;;;;;;5067535;28;20585;-74
2021/09/06 12:02:13;;;;;;;6.60;6.00;;;26.30;99.90;;;;;;5068113;28;20458;-74
2021/09/06 12:04:41;;;;;;;6.53;5.93;;;26.30;99.90;;;;;;5067991;28;20462;-74
2021/09/06 12:07:16;;;;;;;8.20;6.40;;;26.20;99.90;;;;;;5068083;28;20518;-75
2021/09/06 12:09:43;;;;;;;6.83;6.13;;;26.30;99.90;;;;;;5067563;28;20988;-74
2021/09/06 12:12:18;;;;;;;6.47;5.97;;;26.30;99.90;;;;;;5068105;28;20458;-74
2021/09/06 12:14:47;;;;;;;6.90;6.30;;;26.40;99.90;;;;;;5070228;28;20537;-74
2021/09/06 12:17:15;;;;;;;6.23;5.73;;;26.30;99.90;;;;;;5071528;28;20493;-74
2021/09/06 12:19:43;;;;;;;7.43;6.10;;;26.20;99.90;;;;;;5070956;28;21094;-74
2021/09/06 12:22:17;;;;;;;7.13;6.40;;;26.10;99.90;;;;;;5059748;28;20464;-74
2021/09/06 12:24:45;;;;;;;11.20;7.40;;;26.10;99.90;;;;;;5054076;28;20457;-74
2021/09/06 12:27:14;;;;;;;6.67;6.07;;;26.30;99.90;;;;;;5071377;28;20565;-74
2021/09/06 12:29:42;;;;;;;7.17;6.47;;;26.40;99.90;;;;;;5071693;28;20459;-74
2021/09/06 12:32:13;;;;;;;7.33;6.57;;;26.50;99.90;;;;;;5071212;28;20469;-74
2021/09/06 12:34:41;;;;;;;7.07;6.40;;;26.80;99.90;;;;;;5071225;28;20973;-74
2021/09/06 12:37:08;;;;;;;7.03;6.43;;;26.80;99.90;;;;;;5071013;28;20478;-74
2021/09/06 12:39:38;;;;;;;8.80;6.60;;;26.90;99.90;;;;;;5070392;28;21059;-74
2021/09/06 12:42:06;;;;;;;6.93;6.23;;;26.90;99.90;;;;;;5071018;28;20969;-74
2021/09/06 12:44:35;;;;;;;6.93;6.17;;;27.00;99.90;;;;;;5071357;28;20463;-75
2021/09/06 12:47:05;;;;;;;6.83;6.13;;;27.10;99.90;;;;;;5070909;28;20485;-74
2021/09/06 12:49:33;;;;;;;6.70;6.10;;;27.10;99.90;;;;;;5069940;28;20451;-75